sensor_id;sensor_type;location;lat;lon;timestamp;temperature;humidity
46730;DHT22;32476;50.002;11.854;2022-10-17T00:02:13;14.10;99.90
46730;DHT22;32476;50.002;11.854;2022-10-17T00:04:39;14.10;99.90
46730;DHT22;32476;50.002;11.854;2022-10-17T00:07:05;14.10;99.90
46730;DHT22;32476;50.002;11.854;2022-10-17T00:09:33;14.20;99.90
46730;DHT22;32476;50.002;11.854;2022-10-17T00:11:58;14.10;99.90
46730;DHT22;32476;50.002;11.854;2022-10-17T00:14:25;14.10;99.90
46730;DHT22;32476;50.002;11.854;2022-10-17T00:16:52;14.20;99.90
46730;DHT22;32476;50.002;11.854;2022-10-17T00:19:18;14.10;99.90
46730;DHT22;32476;50.002;11.854;2022-10-17T00:21:44;14.00;99.90
46730;DHT22;32476;50.002;11.854;2022-10-17T00:24:11;14.10;99.90
46730;DHT22;32476;50.002;11.854;2022-10-17T00:26:37;14.10;99.90
46730;DHT22;32476;50.002;11.854;2022-10-17T00:29:03;14.00;99.90
46730;DHT22;32476;50.002;11.854;2022-10-17T00:31:30;13.90;99.90
46730;DHT22;32476;50.002;11.854;2022-10-17T00:33:56;14.00;99.90
46730;DHT22;32476;50.002;11.854;2022-10-17T00:36:26;14.00;99.90
46730;DHT22;32476;50.002;11.854;2022-10-17T00:38:56;14.10;99.90
46730;DHT22;32476;50.002;11.854;2022-10-17T00:41:27;14.10;99.90
46730;DHT22;32476;50.002;11.854;2022-10-17T00:44:05;14.10;99.90
46730;DHT22;32476;50.002;11.854;2022-10-17T00:46:52;13.90;99.90
46730;DHT22;32476;50.002;11.854;2022-10-17T00:49:20;14.00;99.90
46730;DHT22;32476;50.002;11.854;2022-10-17T00:51:56;14.10;99.90
46730;DHT22;32476;50.002;11.854;2022-10-17T00:54:34;14.30;99.90
46730;DHT22;32476;50.002;11.854;2022-10-17T00:57:03;14.40;99.90
46730;DHT22;32476;50.002;11.854;2022-10-17T00:59:35;14.30;99.90
46730;DHT22;32476;50.002;11.854;2022-10-17T01:02:05;14.30;99.90
46730;DHT22;32476;50.002;11.854;2022-10-17T01:04:43;14.10;99.90
46730;DHT22;32476;50.002;11.854;2022-10-17T01:07:11;14.10;99.90
46730;DHT22;32476;50.002;11.854;2022-10-17T01:09:38;14.10;99.90
46730;DHT22;32476;50.002;11.854;2022-10-17T01:12:23;14.20;99.90
46730;DHT22;32476;50.002;11.854;2022-10-17T01:14:57;14.20;99.90
46730;DHT22;32476;50.002;11.854;2022-10-17T01:21:00;14.20;99.90
46730;DHT22;32476;50.002;11.854;2022-10-17T01:32:16;14.30;99.90
46730;DHT22;32476;50.002;11.854;2022-10-17T01:37:55;14.40;99.90
46730;DHT22;32476;50.002;11.854;2022-10-17T01:40:35;14.40;99.90
46730;DHT22;32476;50.002;11.854;2022-10-17T01:46:15;14.40;99.90
46730;DHT22;32476;50.002;11.854;2022-10-17T01:48:46;14.30;99.90
46730;DHT22;32476;50.002;11.854;2022-10-17T01:51:42;14.10;99.90
46730;DHT22;32476;50.002;11.854;2022-10-17T01:54:14;14.20;99.90
46730;DHT22;32476;50.002;11.854;2022-10-17T01:56:45;14.30;99.90
46730;DHT22;32476;50.002;11.854;2022-10-17T01:59:19;14.30;99.90
46730;DHT22;32476;50.002;11.854;2022-10-17T02:01:51;14.40;99.90
46730;DHT22;32476;50.002;11.854;2022-10-17T02:04:18;14.30;99.90
46730;DHT22;32476;50.002;11.854;2022-10-17T02:06:45;14.00;99.90
46730;DHT22;32476;50.002;11.854;2022-10-17T02:09:22;13.80;99.90
46730;DHT22;32476;50.002;11.854;2022-10-17T02:15:30;13.00;99.90
46730;DHT22;32476;50.002;11.854;2022-10-17T02:21:23;12.70;99.90
46730;DHT22;32476;50.002;11.854;2022-10-17T02:27:04;12.40;99.90
46730;DHT22;32476;50.002;11.854;2022-10-17T02:32:23;12.20;99.90
46730;DHT22;32476;50.002;11.854;2022-10-17T02:34:55;12.30;99.90
46730;DHT22;32476;50.002;11.854;2022-10-17T02:37:26;12.20;99.90
46730;DHT22;32476;50.002;11.854;2022-10-17T02:39:55;12.10;99.90
46730;DHT22;32476;50.002;11.854;2022-10-17T02:42:25;12.00;99.90
46730;DHT22;32476;50.002;11.854;2022-10-17T02:44:53;11.90;99.90
46730;DHT22;32476;50.002;11.854;2022-10-17T02:47:36;11.90;99.90
46730;DHT22;32476;50.002;11.854;2022-10-17T02:50:10;11.90;99.90
46730;DHT22;32476;50.002;11.854;2022-10-17T02:52:47;11.80;99.90
46730;DHT22;32476;50.002;11.854;2022-10-17T02:55:31;11.80;99.90
46730;DHT22;32476;50.002;11.854;2022-10-17T02:58:06;11.80;99.90
46730;DHT22;32476;50.002;11.854;2022-10-17T03:00:39;11.80;99.90
46730;DHT22;32476;50.002;11.854;2022-10-17T03:03:20;11.70;99.90
46730;DHT22;32476;50.002;11.854;2022-10-17T03:05:52;11.80;99.90
46730;DHT22;32476;50.002;11.854;2022-10-17T03:08:19;11.90;99.90
46730;DHT22;32476;50.002;11.854;2022-10-17T03:10:46;11.80;99.90
46730;DHT22;32476;50.002;11.854;2022-10-17T03:13:14;11.90;99.90
46730;DHT22;32476;50.002;11.854;2022-10-17T03:15:41;11.90;99.90
46730;DHT22;32476;50.002;11.854;2022-10-17T03:18:07;11.90;99.90
46730;DHT22;32476;50.002;11.854;2022-10-17T03:20:35;11.90;99.90
46730;DHT22;32476;50.002;11.854;2022-10-17T03:23:01;11.80;99.90
46730;DHT22;32476;50.002;11.854;2022-10-17T03:25:26;11.90;99.90
46730;DHT22;32476;50.002;11.854;2022-10-17T03:27:57;11.80;99.90
46730;DHT22;32476;50.002;11.854;2022-10-17T03:30:25;11.70;99.90
46730;DHT22;32476;50.002;11.854;2022-10-17T03:32:50;11.70;99.90
46730;DHT22;32476;50.002;11.854;2022-10-17T03:35:18;11.70;99.90
46730;DHT22;32476;50.002;11.854;2022-10-17T03:37:44;11.70;99.90
46730;DHT22;32476;50.002;11.854;2022-10-17T03:40:10;11.70;99.90
46730;DHT22;32476;50.002;11.854;2022-10-17T03:42:38;11.70;99.90
46730;DHT22;32476;50.002;11.854;2022-10-17T03:45:04;11.70;99.90
46730;DHT22;32476;50.002;11.854;2022-10-17T03:47:30;11.60;99.90
46730;DHT22;32476;50.002;11.854;2022-10-17T03:49:57;11.70;99.90
46730;DHT22;32476;50.002;11.854;2022-10-17T03:52:23;11.70;99.90
46730;DHT22;32476;50.002;11.854;2022-10-17T03:54:50;11.70;99.90
46730;DHT22;32476;50.002;11.854;2022-10-17T03:57:18;11.60;99.90
46730;DHT22;32476;50.002;11.854;2022-10-17T03:59:44;11.60;99.90
46730;DHT22;32476;50.002;11.854;2022-10-17T04:02:10;11.60;99.90
46730;DHT22;32476;50.002;11.854;2022-10-17T04:04:38;11.60;99.90
46730;DHT22;32476;50.002;11.854;2022-10-17T04:07:04;11.40;99.90
46730;DHT22;32476;50.002;11.854;2022-10-17T04:09:30;11.40;99.90
46730;DHT22;32476;50.002;11.854;2022-10-17T04:11:57;11.50;99.90
46730;DHT22;32476;50.002;11.854;2022-10-17T04:14:23;11.50;99.90
46730;DHT22;32476;50.002;11.854;2022-10-17T04:16:49;11.50;99.90
46730;DHT22;32476;50.002;11.854;2022-10-17T04:19:17;11.50;99.90
46730;DHT22;32476;50.002;11.854;2022-10-17T04:21:43;11.50;99.90
46730;DHT22;32476;50.002;11.854;2022-10-17T04:24:12;11.50;99.90
46730;DHT22;32476;50.002;11.854;2022-10-17T04:26:39;11.60;99.90
46730;DHT22;32476;50.002;11.854;2022-10-17T04:29:05;11.60;99.90
46730;DHT22;32476;50.002;11.854;2022-10-17T04:31:31;11.60;99.90
46730;DHT22;32476;50.002;11.854;2022-10-17T04:33:58;11.60;99.90
46730;DHT22;32476;50.002;11.854;2022-10-17T04:36:24;11.60;99.90
46730;DHT22;32476;50.002;11.854;2022-10-17T04:38:50;11.60;99.90
46730;DHT22;32476;50.002;11.854;2022-10-17T04:41:18;11.60;99.90
46730;DHT22;32476;50.002;11.854;2022-10-17T04:43:44;11.60;99.90
46730;DHT22;32476;50.002;11.854;2022-10-17T04:46:12;11.60;99.90
46730;DHT22;32476;50.002;11.854;2022-10-17T04:48:41;11.60;99.90
46730;DHT22;32476;50.002;11.854;2022-10-17T04:51:13;11.50;99.90
46730;DHT22;32476;50.002;11.854;2022-10-17T04:53:43;11.60;99.90
46730;DHT22;32476;50.002;11.854;2022-10-17T04:56:18;11.60;99.90
46730;DHT22;32476;50.002;11.854;2022-10-17T04:58:47;11.70;99.90
46730;DHT22;32476;50.002;11.854;2022-10-17T05:01:16;11.60;99.90
46730;DHT22;32476;50.002;11.854;2022-10-17T05:03:44;11.60;99.90
46730;DHT22;32476;50.002;11.854;2022-10-17T05:06:21;11.60;99.90
46730;DHT22;32476;50.002;11.854;2022-10-17T05:08:48;11.60;99.90
46730;DHT22;32476;50.002;11.854;2022-10-17T05:11:21;11.50;99.90
46730;DHT22;32476;50.002;11.854;2022-10-17T05:13:53;11.50;99.90
46730;DHT22;32476;50.002;11.854;2022-10-17T05:16:24;11.40;99.90
46730;DHT22;32476;50.002;11.854;2022-10-17T05:18:53;11.40;99.90
46730;DHT22;32476;50.002;11.854;2022-10-17T05:21:21;11.30;99.90
46730;DHT22;32476;50.002;11.854;2022-10-17T05:23:50;11.40;99.90
46730;DHT22;32476;50.002;11.854;2022-10-17T05:26:16;11.40;99.90
46730;DHT22;32476;50.002;11.854;2022-10-17T05:28:43;11.40;99.90
46730;DHT22;32476;50.002;11.854;2022-10-17T05:31:11;11.40;99.90
46730;DHT22;32476;50.002;11.854;2022-10-17T05:33:38;11.30;99.90
46730;DHT22;32476;50.002;11.854;2022-10-17T05:36:05;11.30;99.90
46730;DHT22;32476;50.002;11.854;2022-10-17T05:38:34;11.30;99.90
46730;DHT22;32476;50.002;11.854;2022-10-17T05:41:02;11.30;99.90
46730;DHT22;32476;50.002;11.854;2022-10-17T05:43:29;11.30;99.90
46730;DHT22;32476;50.002;11.854;2022-10-17T05:45:58;11.10;99.90
46730;DHT22;32476;50.002;11.854;2022-10-17T05:48:24;11.10;99.90
46730;DHT22;32476;50.002;11.854;2022-10-17T05:51:00;11.10;99.90
46730;DHT22;32476;50.002;11.854;2022-10-17T05:53:33;11.00;99.90
46730;DHT22;32476;50.002;11.854;2022-10-17T05:56:02;11.00;99.90
46730;DHT22;32476;50.002;11.854;2022-10-17T05:58:32;11.10;99.90
46730;DHT22;32476;50.002;11.854;2022-10-17T06:01:04;11.30;99.90
46730;DHT22;32476;50.002;11.854;2022-10-17T06:03:32;11.30;99.90
46730;DHT22;32476;50.002;11.854;2022-10-17T06:06:03;11.30;99.90
46730;DHT22;32476;50.002;11.854;2022-10-17T06:08:32;11.30;99.90
46730;DHT22;32476;50.002;11.854;2022-10-17T06:11:02;11.40;99.90
46730;DHT22;32476;50.002;11.854;2022-10-17T06:13:29;11.40;99.90
46730;DHT22;32476;50.002;11.854;2022-10-17T06:15:59;11.50;99.90
46730;DHT22;32476;50.002;11.854;2022-10-17T06:18:25;11.60;99.90
46730;DHT22;32476;50.002;11.854;2022-10-17T06:20:51;11.70;99.90
46730;DHT22;32476;50.002;11.854;2022-10-17T06:23:19;11.80;99.90
46730;DHT22;32476;50.002;11.854;2022-10-17T06:25:44;11.90;99.90
46730;DHT22;32476;50.002;11.854;2022-10-17T06:28:10;11.90;99.90
46730;DHT22;32476;50.002;11.854;2022-10-17T06:30:39;11.90;99.90
46730;DHT22;32476;50.002;11.854;2022-10-17T06:33:06;11.90;99.90
46730;DHT22;32476;50.002;11.854;2022-10-17T06:35:31;11.90;99.90
46730;DHT22;32476;50.002;11.854;2022-10-17T06:37:59;12.10;99.90
46730;DHT22;32476;50.002;11.854;2022-10-17T06:40:25;12.10;99.90
46730;DHT22;32476;50.002;11.854;2022-10-17T06:42:51;12.30;99.90
46730;DHT22;32476;50.002;11.854;2022-10-17T06:45:18;12.30;99.90
46730;DHT22;32476;50.002;11.854;2022-10-17T06:47:44;12.60;99.90
46730;DHT22;32476;50.002;11.854;2022-10-17T06:50:10;12.50;99.90
46730;DHT22;32476;50.002;11.854;2022-10-17T06:52:38;12.80;99.90
46730;DHT22;32476;50.002;11.854;2022-10-17T06:55:04;12.90;99.90
46730;DHT22;32476;50.002;11.854;2022-10-17T06:57:30;13.00;99.90
46730;DHT22;32476;50.002;11.854;2022-10-17T06:59:58;13.10;99.90
46730;DHT22;32476;50.002;11.854;2022-10-17T07:02:24;13.30;99.90
46730;DHT22;32476;50.002;11.854;2022-10-17T07:04:50;13.20;99.90
46730;DHT22;32476;50.002;11.854;2022-10-17T07:07:17;13.40;99.90
46730;DHT22;32476;50.002;11.854;2022-10-17T07:09:43;13.60;99.90
46730;DHT22;32476;50.002;11.854;2022-10-17T07:12:09;13.70;99.90
46730;DHT22;32476;50.002;11.854;2022-10-17T07:14:38;13.80;99.90
46730;DHT22;32476;50.002;11.854;2022-10-17T07:17:04;13.90;99.90
46730;DHT22;32476;50.002;11.854;2022-10-17T07:19:30;13.90;99.90
46730;DHT22;32476;50.002;11.854;2022-10-17T07:21:58;14.10;99.90
46730;DHT22;32476;50.002;11.854;2022-10-17T07:24:25;14.20;99.90
46730;DHT22;32476;50.002;11.854;2022-10-17T07:26:56;14.40;99.90
46730;DHT22;32476;50.002;11.854;2022-10-17T07:29:30;14.60;99.90
46730;DHT22;32476;50.002;11.854;2022-10-17T07:31:58;14.90;99.90
46730;DHT22;32476;50.002;11.854;2022-10-17T07:34:26;15.00;99.90
46730;DHT22;32476;50.002;11.854;2022-10-17T07:36:55;15.20;99.90
46730;DHT22;32476;50.002;11.854;2022-10-17T07:39:21;15.30;99.90
46730;DHT22;32476;50.002;11.854;2022-10-17T07:41:48;15.40;99.90
46730;DHT22;32476;50.002;11.854;2022-10-17T07:44:15;15.50;99.90
46730;DHT22;32476;50.002;11.854;2022-10-17T07:46:41;15.50;99.90
46730;DHT22;32476;50.002;11.854;2022-10-17T07:49:09;15.60;99.90
46730;DHT22;32476;50.002;11.854;2022-10-17T07:51:34;15.60;99.90
46730;DHT22;32476;50.002;11.854;2022-10-17T07:54:01;15.70;99.90
46730;DHT22;32476;50.002;11.854;2022-10-17T07:56:28;15.80;99.90
46730;DHT22;32476;50.002;11.854;2022-10-17T07:58:54;15.80;99.90
46730;DHT22;32476;50.002;11.854;2022-10-17T08:01:20;15.90;99.90
46730;DHT22;32476;50.002;11.854;2022-10-17T08:03:47;15.90;99.90
46730;DHT22;32476;50.002;11.854;2022-10-17T08:06:14;15.90;99.90
46730;DHT22;32476;50.002;11.854;2022-10-17T08:08:40;16.00;99.90
46730;DHT22;32476;50.002;11.854;2022-10-17T08:11:11;16.10;99.90
46730;DHT22;32476;50.002;11.854;2022-10-17T08:13:38;16.20;99.90
46730;DHT22;32476;50.002;11.854;2022-10-17T08:16:07;16.30;99.90
46730;DHT22;32476;50.002;11.854;2022-10-17T08:18:38;16.50;99.90
46730;DHT22;32476;50.002;11.854;2022-10-17T08:21:05;16.70;99.90
46730;DHT22;32476;50.002;11.854;2022-10-17T08:23:33;16.80;99.90
46730;DHT22;32476;50.002;11.854;2022-10-17T08:26:02;16.90;99.90
46730;DHT22;32476;50.002;11.854;2022-10-17T08:28:30;17.00;99.90
46730;DHT22;32476;50.002;11.854;2022-10-17T08:31:03;17.10;99.90
46730;DHT22;32476;50.002;11.854;2022-10-17T08:33:35;17.30;99.90
46730;DHT22;32476;50.002;11.854;2022-10-17T08:36:02;17.40;99.90
46730;DHT22;32476;50.002;11.854;2022-10-17T08:38:29;17.50;99.90
46730;DHT22;32476;50.002;11.854;2022-10-17T08:41:00;17.60;99.90
46730;DHT22;32476;50.002;11.854;2022-10-17T08:46:31;17.80;99.90
46730;DHT22;32476;50.002;11.854;2022-10-17T08:49:03;18.00;99.90
46730;DHT22;32476;50.002;11.854;2022-10-17T08:51:42;18.20;99.90
46730;DHT22;32476;50.002;11.854;2022-10-17T08:54:21;18.40;99.90
46730;DHT22;32476;50.002;11.854;2022-10-17T08:56:53;18.60;99.90
46730;DHT22;32476;50.002;11.854;2022-10-17T08:59:24;18.60;99.90
46730;DHT22;32476;50.002;11.854;2022-10-17T09:05:20;19.10;99.90
46730;DHT22;32476;50.002;11.854;2022-10-17T09:08:05;19.20;99.90
46730;DHT22;32476;50.002;11.854;2022-10-17T09:13:42;19.50;99.90
46730;DHT22;32476;50.002;11.854;2022-10-17T09:22:02;19.60;99.90
46730;DHT22;32476;50.002;11.854;2022-10-17T09:27:03;19.70;99.90
46730;DHT22;32476;50.002;11.854;2022-10-17T09:29:32;19.70;99.90
46730;DHT22;32476;50.002;11.854;2022-10-17T09:32:16;19.80;99.90
46730;DHT22;32476;50.002;11.854;2022-10-17T09:34:44;19.90;99.90
46730;DHT22;32476;50.002;11.854;2022-10-17T09:37:13;19.90;99.90
46730;DHT22;32476;50.002;11.854;2022-10-17T09:39:41;19.90;99.90
46730;DHT22;32476;50.002;11.854;2022-10-17T09:42:13;20.00;99.90
46730;DHT22;32476;50.002;11.854;2022-10-17T09:44:51;20.20;99.90
46730;DHT22;32476;50.002;11.854;2022-10-17T09:47:37;20.30;99.90
46730;DHT22;32476;50.002;11.854;2022-10-17T09:50:25;20.40;99.90
46730;DHT22;32476;50.002;11.854;2022-10-17T09:52:56;20.40;99.90
46730;DHT22;32476;50.002;11.854;2022-10-17T09:55:39;20.40;99.90
46730;DHT22;32476;50.002;11.854;2022-10-17T09:58:09;20.30;99.90
46730;DHT22;32476;50.002;11.854;2022-10-17T10:00:41;20.40;99.90
46730;DHT22;32476;50.002;11.854;2022-10-17T10:03:21;20.40;99.90
46730;DHT22;32476;50.002;11.854;2022-10-17T10:06:00;20.40;99.90
46730;DHT22;32476;50.002;11.854;2022-10-17T10:08:46;20.40;99.90
46730;DHT22;32476;50.002;11.854;2022-10-17T10:14:22;20.50;99.90
46730;DHT22;32476;50.002;11.854;2022-10-17T10:16:59;20.70;99.90
46730;DHT22;32476;50.002;11.854;2022-10-17T10:19:30;20.70;99.90
46730;DHT22;32476;50.002;11.854;2022-10-17T10:22:00;20.90;99.90
46730;DHT22;32476;50.002;11.854;2022-10-17T10:24:29;20.90;99.90
46730;DHT22;32476;50.002;11.854;2022-10-17T10:27:06;20.90;99.90
46730;DHT22;32476;50.002;11.854;2022-10-17T10:29:48;20.90;99.90
46730;DHT22;32476;50.002;11.854;2022-10-17T10:32:26;21.00;99.90
46730;DHT22;32476;50.002;11.854;2022-10-17T10:34:58;20.90;99.90
46730;DHT22;32476;50.002;11.854;2022-10-17T10:37:29;20.90;99.90
46730;DHT22;32476;50.002;11.854;2022-10-17T10:42:55;20.90;99.90
46730;DHT22;32476;50.002;11.854;2022-10-17T10:45:27;21.00;99.90
46730;DHT22;32476;50.002;11.854;2022-10-17T10:47:59;21.10;99.90
46730;DHT22;32476;50.002;11.854;2022-10-17T10:50:31;21.20;99.90
46730;DHT22;32476;50.002;11.854;2022-10-17T10:56:23;21.10;99.90
46730;DHT22;32476;50.002;11.854;2022-10-17T11:04:36;21.20;99.90
46730;DHT22;32476;50.002;11.854;2022-10-17T11:07:39;21.40;99.90
46730;DHT22;32476;50.002;11.854;2022-10-17T11:10:24;21.50;99.90
46730;DHT22;32476;50.002;11.854;2022-10-17T11:13:18;21.40;99.90
46730;DHT22;32476;50.002;11.854;2022-10-17T11:16:00;21.50;99.90
46730;DHT22;32476;50.002;11.854;2022-10-17T11:18:44;21.70;99.90
46730;DHT22;32476;50.002;11.854;2022-10-17T11:27:30;21.80;99.90
46730;DHT22;32476;50.002;11.854;2022-10-17T11:30:00;22.00;99.90
46730;DHT22;32476;50.002;11.854;2022-10-17T11:32:45;22.00;99.90
46730;DHT22;32476;50.002;11.854;2022-10-17T11:35:23;21.80;99.90
46730;DHT22;32476;50.002;11.854;2022-10-17T11:38:28;22.20;99.90
46730;DHT22;32476;50.002;11.854;2022-10-17T11:41:03;22.00;99.90
46730;DHT22;32476;50.002;11.854;2022-10-17T11:43:45;22.20;99.90
46730;DHT22;32476;50.002;11.854;2022-10-17T11:46:26;22.10;99.90
46730;DHT22;32476;50.002;11.854;2022-10-17T11:49:13;22.10;99.90
46730;DHT22;32476;50.002;11.854;2022-10-17T11:51:55;22.40;99.90
46730;DHT22;32476;50.002;11.854;2022-10-17T11:54:32;22.60;99.90
46730;DHT22;32476;50.002;11.854;2022-10-17T12:03:44;23.30;99.90
46730;DHT22;32476;50.002;11.854;2022-10-17T12:06:33;23.50;99.90
46730;DHT22;32476;50.002;11.854;2022-10-17T12:12:26;23.20;99.90
46730;DHT22;32476;50.002;11.854;2022-10-17T12:17:45;23.30;99.90
46730;DHT22;32476;50.002;11.854;2022-10-17T12:23:02;23.20;99.90
46730;DHT22;32476;50.002;11.854;2022-10-17T12:25:52;23.20;99.90
46730;DHT22;32476;50.002;11.854;2022-10-17T12:28:47;23.30;99.90
46730;DHT22;32476;50.002;11.854;2022-10-17T12:33:57;23.10;99.90
46730;DHT22;32476;50.002;11.854;2022-10-17T12:49:48;23.20;99.90
46730;DHT22;32476;50.002;11.854;2022-10-17T12:55:11;23.40;99.90
46730;DHT22;32476;50.002;11.854;2022-10-17T12:57:59;23.60;99.90
46730;DHT22;32476;50.002;11.854;2022-10-17T13:00:35;23.50;99.90
46730;DHT22;32476;50.002;11.854;2022-10-17T13:03:17;23.60;99.90
46730;DHT22;32476;50.002;11.854;2022-10-17T13:05:50;23.70;99.90
46730;DHT22;32476;50.002;11.854;2022-10-17T13:08:41;23.70;99.90
46730;DHT22;32476;50.002;11.854;2022-10-17T13:11:09;23.50;99.90
46730;DHT22;32476;50.002;11.854;2022-10-17T13:13:48;23.60;99.90
46730;DHT22;32476;50.002;11.854;2022-10-17T13:19:02;23.80;99.90
46730;DHT22;32476;50.002;11.854;2022-10-17T13:21:35;23.90;99.90
46730;DHT22;32476;50.002;11.854;2022-10-17T13:24:42;23.60;99.90
46730;DHT22;32476;50.002;11.854;2022-10-17T13:27:28;23.60;99.90
46730;DHT22;32476;50.002;11.854;2022-10-17T13:29:58;23.60;99.90
46730;DHT22;32476;50.002;11.854;2022-10-17T13:32:37;23.70;99.90
46730;DHT22;32476;50.002;11.854;2022-10-17T13:35:14;24.00;99.90
46730;DHT22;32476;50.002;11.854;2022-10-17T13:37:44;23.90;99.90
46730;DHT22;32476;50.002;11.854;2022-10-17T13:40:18;23.80;99.90
46730;DHT22;32476;50.002;11.854;2022-10-17T13:42:49;23.70;99.90
46730;DHT22;32476;50.002;11.854;2022-10-17T13:45:36;23.50;99.90
46730;DHT22;32476;50.002;11.854;2022-10-17T13:48:05;23.40;99.90
46730;DHT22;32476;50.002;11.854;2022-10-17T13:50:37;23.10;99.90
46730;DHT22;32476;50.002;11.854;2022-10-17T13:56:23;23.30;99.90
46730;DHT22;32476;50.002;11.854;2022-10-17T13:59:05;23.40;99.90
46730;DHT22;32476;50.002;11.854;2022-10-17T14:01:41;23.40;99.90
46730;DHT22;32476;50.002;11.854;2022-10-17T14:04:08;23.30;99.90
46730;DHT22;32476;50.002;11.854;2022-10-17T14:06:42;23.20;99.90
46730;DHT22;32476;50.002;11.854;2022-10-17T14:09:23;23.20;99.90
46730;DHT22;32476;50.002;11.854;2022-10-17T14:12:07;23.10;99.90
46730;DHT22;32476;50.002;11.854;2022-10-17T14:14:38;22.90;99.90
46730;DHT22;32476;50.002;11.854;2022-10-17T14:17:23;22.70;99.90
46730;DHT22;32476;50.002;11.854;2022-10-17T14:19:57;22.30;99.90
46730;DHT22;32476;50.002;11.854;2022-10-17T14:22:29;22.30;99.90
46730;DHT22;32476;50.002;11.854;2022-10-17T14:25:02;22.30;99.90
46730;DHT22;32476;50.002;11.854;2022-10-17T14:27:37;22.10;99.90
46730;DHT22;32476;50.002;11.854;2022-10-17T14:32:54;21.70;99.90
46730;DHT22;32476;50.002;11.854;2022-10-17T14:35:26;21.70;99.90
46730;DHT22;32476;50.002;11.854;2022-10-17T14:38:03;21.70;99.90
46730;DHT22;32476;50.002;11.854;2022-10-17T14:40:32;21.50;99.90
46730;DHT22;32476;50.002;11.854;2022-10-17T14:43:04;21.40;99.90
46730;DHT22;32476;50.002;11.854;2022-10-17T14:45:37;21.30;99.90
46730;DHT22;32476;50.002;11.854;2022-10-17T14:48:14;21.40;99.90
46730;DHT22;32476;50.002;11.854;2022-10-17T14:51:11;21.40;99.90
46730;DHT22;32476;50.002;11.854;2022-10-17T14:53:43;21.40;99.90
46730;DHT22;32476;50.002;11.854;2022-10-17T14:56:35;21.50;99.90
46730;DHT22;32476;50.002;11.854;2022-10-17T14:59:03;21.50;99.90
46730;DHT22;32476;50.002;11.854;2022-10-17T15:01:32;21.40;99.90
46730;DHT22;32476;50.002;11.854;2022-10-17T15:04:00;21.50;99.90
46730;DHT22;32476;50.002;11.854;2022-10-17T15:06:29;21.50;99.90
46730;DHT22;32476;50.002;11.854;2022-10-17T15:08:58;21.40;99.90
46730;DHT22;32476;50.002;11.854;2022-10-17T15:11:24;21.30;99.90
46730;DHT22;32476;50.002;11.854;2022-10-17T15:13:50;21.20;99.90
46730;DHT22;32476;50.002;11.854;2022-10-17T15:16:26;21.10;99.90
46730;DHT22;32476;50.002;11.854;2022-10-17T15:18:56;21.10;99.90
46730;DHT22;32476;50.002;11.854;2022-10-17T15:21:26;21.00;99.90
46730;DHT22;32476;50.002;11.854;2022-10-17T15:23:53;20.80;99.90
46730;DHT22;32476;50.002;11.854;2022-10-17T15:26:21;20.60;99.90
46730;DHT22;32476;50.002;11.854;2022-10-17T15:28:51;20.60;99.90
46730;DHT22;32476;50.002;11.854;2022-10-17T15:31:19;20.50;99.90
46730;DHT22;32476;50.002;11.854;2022-10-17T15:33:47;20.30;99.90
46730;DHT22;32476;50.002;11.854;2022-10-17T15:36:37;20.30;99.90
46730;DHT22;32476;50.002;11.854;2022-10-17T15:39:05;20.10;99.90
46730;DHT22;32476;50.002;11.854;2022-10-17T15:41:32;20.00;99.90
46730;DHT22;32476;50.002;11.854;2022-10-17T15:43:59;20.10;99.90
46730;DHT22;32476;50.002;11.854;2022-10-17T15:46:31;20.00;99.90
46730;DHT22;32476;50.002;11.854;2022-10-17T15:49:04;19.90;99.90
46730;DHT22;32476;50.002;11.854;2022-10-17T15:51:32;19.80;99.90
46730;DHT22;32476;50.002;11.854;2022-10-17T15:54:00;19.70;99.90
46730;DHT22;32476;50.002;11.854;2022-10-17T15:56:32;19.50;99.90
46730;DHT22;32476;50.002;11.854;2022-10-17T15:59:04;18.70;99.90
46730;DHT22;32476;50.002;11.854;2022-10-17T16:01:33;18.70;99.90
46730;DHT22;32476;50.002;11.854;2022-10-17T16:03:59;18.70;99.90
46730;DHT22;32476;50.002;11.854;2022-10-17T16:06:27;18.30;99.90
46730;DHT22;32476;50.002;11.854;2022-10-17T16:08:53;18.10;99.90
46730;DHT22;32476;50.002;11.854;2022-10-17T16:11:35;17.80;99.90
46730;DHT22;32476;50.002;11.854;2022-10-17T16:14:10;17.70;99.90
46730;DHT22;32476;50.002;11.854;2022-10-17T16:16:37;17.40;99.90
46730;DHT22;32476;50.002;11.854;2022-10-17T16:19:07;17.20;99.90
46730;DHT22;32476;50.002;11.854;2022-10-17T16:21:34;17.10;99.90
46730;DHT22;32476;50.002;11.854;2022-10-17T16:24:05;17.00;99.90
46730;DHT22;32476;50.002;11.854;2022-10-17T16:26:35;16.90;99.90
46730;DHT22;32476;50.002;11.854;2022-10-17T16:29:01;16.60;99.90
46730;DHT22;32476;50.002;11.854;2022-10-17T16:31:34;16.50;99.90
46730;DHT22;32476;50.002;11.854;2022-10-17T16:34:03;16.30;99.90
46730;DHT22;32476;50.002;11.854;2022-10-17T16:36:31;16.20;99.90
46730;DHT22;32476;50.002;11.854;2022-10-17T16:38:58;16.10;99.90
46730;DHT22;32476;50.002;11.854;2022-10-17T16:41:39;16.00;99.90
46730;DHT22;32476;50.002;11.854;2022-10-17T16:44:08;15.90;99.90
46730;DHT22;32476;50.002;11.854;2022-10-17T16:46:37;15.80;99.90
46730;DHT22;32476;50.002;11.854;2022-10-17T16:49:06;15.70;99.90
46730;DHT22;32476;50.002;11.854;2022-10-17T16:51:32;15.60;99.90
46730;DHT22;32476;50.002;11.854;2022-10-17T16:54:01;15.40;99.90
46730;DHT22;32476;50.002;11.854;2022-10-17T16:56:29;15.30;99.90
46730;DHT22;32476;50.002;11.854;2022-10-17T16:58:58;15.20;99.90
46730;DHT22;32476;50.002;11.854;2022-10-17T17:01:26;15.20;99.90
46730;DHT22;32476;50.002;11.854;2022-10-17T17:03:55;15.10;99.90
46730;DHT22;32476;50.002;11.854;2022-10-17T17:06:27;15.00;99.90
46730;DHT22;32476;50.002;11.854;2022-10-17T17:08:55;14.90;99.90
46730;DHT22;32476;50.002;11.854;2022-10-17T17:11:25;14.90;99.90
46730;DHT22;32476;50.002;11.854;2022-10-17T17:13:54;14.80;99.90
46730;DHT22;32476;50.002;11.854;2022-10-17T17:16:26;14.70;99.90
46730;DHT22;32476;50.002;11.854;2022-10-17T17:18:54;14.60;99.90
46730;DHT22;32476;50.002;11.854;2022-10-17T17:21:23;14.50;99.90
46730;DHT22;32476;50.002;11.854;2022-10-17T17:23:49;14.40;99.90
46730;DHT22;32476;50.002;11.854;2022-10-17T17:26:20;14.40;99.90
46730;DHT22;32476;50.002;11.854;2022-10-17T17:28:48;14.30;99.90
46730;DHT22;32476;50.002;11.854;2022-10-17T17:31:17;14.30;99.90
46730;DHT22;32476;50.002;11.854;2022-10-17T17:33:49;14.20;99.90
46730;DHT22;32476;50.002;11.854;2022-10-17T17:36:20;14.10;99.90